Northern Lark — WDG5157 — position and weather

sailwx.info

Track history (hours):
 
Tides and Currents Weather Stations Pressure Air Temp Water Temp Dewpoint Dewpoint Depression Visibility Wind Speed Wind Dir Waves Ship Positions

Northern Lark

Owner: Biener, Robert, Bainbridge Island, WA. More information available from US FCC via Universal Licensing System.

Last reported at 2017-Sep-24 00:38 UTC. Time now 2017-Dec-18 06:58 UTC.
Position N 47°39' W 122°20'.
Warning: this ship's position is months out of date.

Length 16 m.

Type: Pleasure craft. MMSI: 367543890.

Date/timePositionNaut miles runAvg speedWind from/ knotsBaromVisibWave heightAir tempDewpointWater temp
2017-Sep-24 00:38N 47°39' W 122°20'0 0.0
2017-Sep-24 00:30N 47°39' W 122°20'3 4.9
2017-Sep-23 23:48N 47°39' W 122°14'1 1.9
2017-Sep-23 23:30N 47°39' W 122°14'2 4.5
2017-Sep-23 23:00N 47°37' W 122°14'2 3.5
2017-Sep-23 22:30N 47°35' W 122°13'4 5.3
2017-Sep-23 21:48N 47°32' W 122°14'2 6.6
2017-Sep-23 21:31N 47°34' W 122°14'6 5.7
2017-Sep-23 20:27N 47°39' W 122°19'1 3.2
2017-Sep-23 20:00N 47°38' W 122°20'  
Track history (hours):
 
Tides and Currents Weather Stations Pressure Air Temp Water Temp Dewpoint Dewpoint Depression Visibility Wind Speed Wind Dir Waves Ship Positions

Northern Lark

Owner: Biener, Robert, Bainbridge Island, WA. More information available from US FCC via Universal Licensing System.

Last reported at 2017-Sep-24 00:38 UTC. Time now 2017-Dec-18 06:58 UTC.
Position N 47°39' W 122°20'.
Warning: this ship's position is months out of date.

Length 16 m.

Type: Pleasure craft. MMSI: 367543890.

Date/timePositionNaut miles runAvg speedWind from/ knotsBaromVisibWave heightAir tempDewpointWater temp
2017-Sep-24 00:38N 47°39' W 122°20'0 0.0
2017-Sep-24 00:30N 47°39' W 122°20'3 4.9
2017-Sep-23 23:48N 47°39' W 122°14'1 1.9
2017-Sep-23 23:30N 47°39' W 122°14'2 4.5
2017-Sep-23 23:00N 47°37' W 122°14'2 3.5
2017-Sep-23 22:30N 47°35' W 122°13'4 5.3
2017-Sep-23 21:48N 47°32' W 122°14'2 6.6
2017-Sep-23 21:31N 47°34' W 122°14'6 5.7
2017-Sep-23 20:27N 47°39' W 122°19'1 3.2
2017-Sep-23 20:00N 47°38' W 122°20'  

Dump ship's entire track history